Neche, North Dakota
Current Conditions -  °F | °C
As of 6:35 AM on Tuesday 27 Jan 2015 (Local Time) from K2C8 Reporting Station
Haze Haze  
Wind Chill: 12°   Ceiling: 100
Heat Index: 23°   Visibility: 1mi
Dew Point: 23°   Wind: 10mph
Humidity: 100%   Direction: 170°S
Pressure: 29.99"   Gusts: NA
Location:  48.99°N, 97.55°W
Report Text: K2C8 271235Z AUTO 17009KT 1SM BR OVC001 M05/M05 A2999 RMK AO2
Loading
Personal Weather Stations






























Interactive Weather Map New forecast layout! Learn more

10-Day Weather Forecast

Advertisements
Track Severe Weather on mobile